Terminal Aerodrome Forecast
Issued by NWS Central Illinois

Home | Current Version | Previous Version | Text Only | Print | Product List | Glossary On
Versions: 1 2 3 4 5 6 7 8 9 10 11 12 13 14 15 16
000
FTUS43 KILX 311120
TAFPIA
TAF
KPIA 311120Z 3112/0112 29003KT P6SM SKC
     FM311500 27008KT P6SM FEW050
     FM311900 29010G18KT P6SM VCTS SCT040CB
     FM312300 30005KT P6SM SKC=

USA.gov is the U.S. government's official web portal to all federal, state and local government web resources and services.